sensor_id;sensor_type;location;lat;lon;timestamp;temperature;humidity
13598;DHT22;38563;54.258;12.574;2023-09-19T00:01:33;18.20;99.90
13598;DHT22;38563;54.258;12.574;2023-09-19T00:04:01;18.20;99.90
13598;DHT22;38563;54.258;12.574;2023-09-19T00:06:29;18.20;99.90
13598;DHT22;38563;54.258;12.574;2023-09-19T00:08:57;18.20;99.90
13598;DHT22;38563;54.258;12.574;2023-09-19T00:11:25;18.20;99.90
13598;DHT22;38563;54.258;12.574;2023-09-19T00:13:52;18.20;99.90
13598;DHT22;38563;54.258;12.574;2023-09-19T00:16:20;18.10;99.90
13598;DHT22;38563;54.258;12.574;2023-09-19T00:18:47;18.20;99.90
13598;DHT22;38563;54.258;12.574;2023-09-19T00:21:15;18.20;99.90
13598;DHT22;38563;54.258;12.574;2023-09-19T00:23:42;18.20;99.90
13598;DHT22;38563;54.258;12.574;2023-09-19T00:26:09;18.20;99.90
13598;DHT22;38563;54.258;12.574;2023-09-19T00:28:36;18.10;99.90
13598;DHT22;38563;54.258;12.574;2023-09-19T00:31:03;18.10;99.90
13598;DHT22;38563;54.258;12.574;2023-09-19T00:33:31;18.10;99.90
13598;DHT22;38563;54.258;12.574;2023-09-19T00:35:58;18.10;99.90
13598;DHT22;38563;54.258;12.574;2023-09-19T00:38:26;18.00;99.90
13598;DHT22;38563;54.258;12.574;2023-09-19T00:40:54;18.00;99.90
13598;DHT22;38563;54.258;12.574;2023-09-19T00:43:22;18.00;99.90
13598;DHT22;38563;54.258;12.574;2023-09-19T00:45:51;17.90;99.90
13598;DHT22;38563;54.258;12.574;2023-09-19T00:48:19;17.90;99.90
13598;DHT22;38563;54.258;12.574;2023-09-19T00:50:48;17.80;99.90
13598;DHT22;38563;54.258;12.574;2023-09-19T00:53:18;17.80;99.90
13598;DHT22;38563;54.258;12.574;2023-09-19T00:55:47;17.70;99.90
13598;DHT22;38563;54.258;12.574;2023-09-19T00:58:16;17.70;99.90
13598;DHT22;38563;54.258;12.574;2023-09-19T01:00:43;17.70;99.90
13598;DHT22;38563;54.258;12.574;2023-09-19T01:03:10;17.60;99.90
13598;DHT22;38563;54.258;12.574;2023-09-19T01:05:40;17.50;99.90
13598;DHT22;38563;54.258;12.574;2023-09-19T01:08:06;17.60;99.90
13598;DHT22;38563;54.258;12.574;2023-09-19T01:10:33;17.60;99.90
13598;DHT22;38563;54.258;12.574;2023-09-19T01:13:08;17.70;99.90
13598;DHT22;38563;54.258;12.574;2023-09-19T01:15:43;17.80;99.90
13598;DHT22;38563;54.258;12.574;2023-09-19T01:18:21;17.80;99.90
13598;DHT22;38563;54.258;12.574;2023-09-19T01:20:57;17.90;99.90
13598;DHT22;38563;54.258;12.574;2023-09-19T01:23:42;17.90;99.90
13598;DHT22;38563;54.258;12.574;2023-09-19T01:26:28;18.00;99.90
13598;DHT22;38563;54.258;12.574;2023-09-19T01:29:13;18.10;99.90
13598;DHT22;38563;54.258;12.574;2023-09-19T01:31:47;18.10;99.90
13598;DHT22;38563;54.258;12.574;2023-09-19T01:34:15;18.10;99.90
13598;DHT22;38563;54.258;12.574;2023-09-19T01:36:43;18.10;99.90
13598;DHT22;38563;54.258;12.574;2023-09-19T01:39:13;18.10;99.90
13598;DHT22;38563;54.258;12.574;2023-09-19T01:42:01;18.20;99.90
13598;DHT22;38563;54.258;12.574;2023-09-19T01:44:36;18.30;99.90
13598;DHT22;38563;54.258;12.574;2023-09-19T01:47:22;18.30;99.90
13598;DHT22;38563;54.258;12.574;2023-09-19T01:49:56;18.30;99.90
13598;DHT22;38563;54.258;12.574;2023-09-19T01:52:29;18.40;99.90
13598;DHT22;38563;54.258;12.574;2023-09-19T01:55:02;18.30;99.90
13598;DHT22;38563;54.258;12.574;2023-09-19T01:57:35;18.30;99.90
13598;DHT22;38563;54.258;12.574;2023-09-19T02:00:07;18.30;99.90
13598;DHT22;38563;54.258;12.574;2023-09-19T02:02:44;18.20;99.90
13598;DHT22;38563;54.258;12.574;2023-09-19T02:05:11;18.20;99.90
13598;DHT22;38563;54.258;12.574;2023-09-19T02:07:38;18.20;99.90
13598;DHT22;38563;54.258;12.574;2023-09-19T02:10:06;18.10;99.90
13598;DHT22;38563;54.258;12.574;2023-09-19T02:12:35;18.10;99.90
13598;DHT22;38563;54.258;12.574;2023-09-19T02:15:03;18.00;99.90
13598;DHT22;38563;54.258;12.574;2023-09-19T02:17:32;18.00;99.90
13598;DHT22;38563;54.258;12.574;2023-09-19T04:35:08;16.00;99.90
13598;DHT22;38563;54.258;12.574;2023-09-19T04:37:37;16.00;99.90
13598;DHT22;38563;54.258;12.574;2023-09-19T04:40:06;15.90;99.90
13598;DHT22;38563;54.258;12.574;2023-09-19T04:42:40;15.90;99.90
13598;DHT22;38563;54.258;12.574;2023-09-19T04:45:07;15.90;99.90
13598;DHT22;38563;54.258;12.574;2023-09-19T04:47:35;15.80;99.90
13598;DHT22;38563;54.258;12.574;2023-09-19T04:50:05;15.80;99.90
13598;DHT22;38563;54.258;12.574;2023-09-19T04:52:34;15.80;99.90
13598;DHT22;38563;54.258;12.574;2023-09-19T04:55:01;15.80;99.90
13598;DHT22;38563;54.258;12.574;2023-09-19T04:57:28;15.80;99.90
13598;DHT22;38563;54.258;12.574;2023-09-19T04:59:54;15.80;99.90
13598;DHT22;38563;54.258;12.574;2023-09-19T05:02:21;15.70;99.90
13598;DHT22;38563;54.258;12.574;2023-09-19T05:04:47;15.70;99.90
13598;DHT22;38563;54.258;12.574;2023-09-19T05:07:14;15.70;99.90
13598;DHT22;38563;54.258;12.574;2023-09-19T05:09:43;15.60;99.90
13598;DHT22;38563;54.258;12.574;2023-09-19T05:12:10;15.60;99.90
13598;DHT22;38563;54.258;12.574;2023-09-19T05:14:37;15.70;99.90
13598;DHT22;38563;54.258;12.574;2023-09-19T05:17:05;15.60;99.90
13598;DHT22;38563;54.258;12.574;2023-09-19T05:19:33;15.60;99.90
13598;DHT22;38563;54.258;12.574;2023-09-19T05:22:00;15.60;99.90
13598;DHT22;38563;54.258;12.574;2023-09-19T05:24:27;15.60;99.90
13598;DHT22;38563;54.258;12.574;2023-09-19T05:26:55;15.70;99.90
13598;DHT22;38563;54.258;12.574;2023-09-19T05:29:22;15.70;99.90
13598;DHT22;38563;54.258;12.574;2023-09-19T05:31:49;15.70;99.90
13598;DHT22;38563;54.258;12.574;2023-09-19T05:34:16;15.70;99.90
13598;DHT22;38563;54.258;12.574;2023-09-19T05:36:43;15.80;99.90
13598;DHT22;38563;54.258;12.574;2023-09-19T05:39:09;15.90;99.90
13598;DHT22;38563;54.258;12.574;2023-09-19T05:41:37;16.00;99.90
13598;DHT22;38563;54.258;12.574;2023-09-19T05:44:06;16.10;99.90
13598;DHT22;38563;54.258;12.574;2023-09-19T05:46:33;16.20;99.90
13598;DHT22;38563;54.258;12.574;2023-09-19T05:49:00;16.20;99.90
13598;DHT22;38563;54.258;12.574;2023-09-19T05:51:27;16.30;99.90
13598;DHT22;38563;54.258;12.574;2023-09-19T05:53:54;16.40;99.90
13598;DHT22;38563;54.258;12.574;2023-09-19T05:56:21;16.40;99.90
13598;DHT22;38563;54.258;12.574;2023-09-19T05:58:48;16.40;99.90
13598;DHT22;38563;54.258;12.574;2023-09-19T06:01:16;16.40;99.90
13598;DHT22;38563;54.258;12.574;2023-09-19T06:03:43;16.30;99.90
13598;DHT22;38563;54.258;12.574;2023-09-19T06:06:10;16.30;99.90
13598;DHT22;38563;54.258;12.574;2023-09-19T06:08:36;16.30;99.90
13598;DHT22;38563;54.258;12.574;2023-09-19T06:11:03;16.40;99.90
13598;DHT22;38563;54.258;12.574;2023-09-19T06:13:34;16.60;99.90
13598;DHT22;38563;54.258;12.574;2023-09-19T06:16:01;16.60;99.90
13598;DHT22;38563;54.258;12.574;2023-09-19T06:18:31;16.70;99.90
13598;DHT22;38563;54.258;12.574;2023-09-19T06:20:59;16.70;99.90
13598;DHT22;38563;54.258;12.574;2023-09-19T06:23:26;16.70;99.90
13598;DHT22;38563;54.258;12.574;2023-09-19T06:25:54;16.60;99.90
13598;DHT22;38563;54.258;12.574;2023-09-19T06:28:21;16.40;99.90
13598;DHT22;38563;54.258;12.574;2023-09-19T06:30:50;16.30;99.90
13598;DHT22;38563;54.258;12.574;2023-09-19T06:33:16;16.20;99.90
13598;DHT22;38563;54.258;12.574;2023-09-19T06:35:47;16.20;99.90
13598;DHT22;38563;54.258;12.574;2023-09-19T06:38:14;16.30;99.90
13598;DHT22;38563;54.258;12.574;2023-09-19T06:40:41;16.40;99.90
13598;DHT22;38563;54.258;12.574;2023-09-19T06:43:10;16.40;99.90
13598;DHT22;38563;54.258;12.574;2023-09-19T06:45:37;16.40;99.90
13598;DHT22;38563;54.258;12.574;2023-09-19T06:48:04;16.60;99.90
13598;DHT22;38563;54.258;12.574;2023-09-19T06:50:31;16.70;99.90
13598;DHT22;38563;54.258;12.574;2023-09-19T06:53:01;16.90;99.90
13598;DHT22;38563;54.258;12.574;2023-09-19T06:55:28;17.00;99.90
13598;DHT22;38563;54.258;12.574;2023-09-19T06:57:57;17.20;99.90
13598;DHT22;38563;54.258;12.574;2023-09-19T07:00:24;17.30;99.90
13598;DHT22;38563;54.258;12.574;2023-09-19T07:02:58;17.20;99.90
13598;DHT22;38563;54.258;12.574;2023-09-19T07:05:27;17.20;99.90
13598;DHT22;38563;54.258;12.574;2023-09-19T07:07:54;17.10;99.90
13598;DHT22;38563;54.258;12.574;2023-09-19T07:10:22;17.00;99.90
13598;DHT22;38563;54.258;12.574;2023-09-19T07:12:55;16.80;99.90
13598;DHT22;38563;54.258;12.574;2023-09-19T07:15:23;16.70;99.90
13598;DHT22;38563;54.258;12.574;2023-09-19T07:17:50;16.70;99.90
13598;DHT22;38563;54.258;12.574;2023-09-19T07:20:17;16.80;99.90
13598;DHT22;38563;54.258;12.574;2023-09-19T07:22:44;16.90;99.90
13598;DHT22;38563;54.258;12.574;2023-09-19T07:25:10;16.90;99.90
13598;DHT22;38563;54.258;12.574;2023-09-19T07:27:40;16.90;99.90
13598;DHT22;38563;54.258;12.574;2023-09-19T07:30:08;16.90;99.90
13598;DHT22;38563;54.258;12.574;2023-09-19T07:32:35;17.00;99.90
13598;DHT22;38563;54.258;12.574;2023-09-19T07:35:03;17.00;99.90
13598;DHT22;38563;54.258;12.574;2023-09-19T07:37:31;17.10;99.90
13598;DHT22;38563;54.258;12.574;2023-09-19T07:39:58;17.10;99.90
13598;DHT22;38563;54.258;12.574;2023-09-19T07:42:25;17.20;99.90
13598;DHT22;38563;54.258;12.574;2023-09-19T07:44:53;17.30;99.90
13598;DHT22;38563;54.258;12.574;2023-09-19T07:47:20;17.20;99.90
13598;DHT22;38563;54.258;12.574;2023-09-19T07:49:47;17.10;99.90
13598;DHT22;38563;54.258;12.574;2023-09-19T07:52:14;16.90;99.90
13598;DHT22;38563;54.258;12.574;2023-09-19T07:54:41;16.90;99.90
13598;DHT22;38563;54.258;12.574;2023-09-19T07:57:10;16.80;99.90
13598;DHT22;38563;54.258;12.574;2023-09-19T07:59:37;16.80;99.90
13598;DHT22;38563;54.258;12.574;2023-09-19T08:02:06;16.80;99.90
13598;DHT22;38563;54.258;12.574;2023-09-19T08:04:33;16.80;99.90
13598;DHT22;38563;54.258;12.574;2023-09-19T08:07:00;16.90;99.90
13598;DHT22;38563;54.258;12.574;2023-09-19T08:09:29;17.00;99.90
13598;DHT22;38563;54.258;12.574;2023-09-19T08:11:58;17.00;99.90
13598;DHT22;38563;54.258;12.574;2023-09-19T08:14:29;17.10;99.90
13598;DHT22;38563;54.258;12.574;2023-09-19T08:16:56;17.20;99.90
13598;DHT22;38563;54.258;12.574;2023-09-19T08:19:25;17.20;99.90
13598;DHT22;38563;54.258;12.574;2023-09-19T08:21:55;17.40;99.90
13598;DHT22;38563;54.258;12.574;2023-09-19T08:24:24;17.60;99.90
13598;DHT22;38563;54.258;12.574;2023-09-19T08:26:53;17.80;99.90
13598;DHT22;38563;54.258;12.574;2023-09-19T08:29:20;17.80;99.90
13598;DHT22;38563;54.258;12.574;2023-09-19T08:31:46;17.90;99.90
13598;DHT22;38563;54.258;12.574;2023-09-19T08:34:14;17.90;99.90
13598;DHT22;38563;54.258;12.574;2023-09-19T08:36:43;17.60;99.90
13598;DHT22;38563;54.258;12.574;2023-09-19T08:39:10;17.50;99.90
13598;DHT22;38563;54.258;12.574;2023-09-19T08:41:39;17.40;99.90
13598;DHT22;38563;54.258;12.574;2023-09-19T08:44:06;17.50;99.90
13598;DHT22;38563;54.258;12.574;2023-09-19T08:46:34;17.70;99.90
13598;DHT22;38563;54.258;12.574;2023-09-19T08:49:05;17.80;99.90
13598;DHT22;38563;54.258;12.574;2023-09-19T08:51:43;17.80;99.90
13598;DHT22;38563;54.258;12.574;2023-09-19T08:54:18;17.70;99.90
13598;DHT22;38563;54.258;12.574;2023-09-19T08:56:50;17.80;99.90
13598;DHT22;38563;54.258;12.574;2023-09-19T08:59:17;17.80;99.90
13598;DHT22;38563;54.258;12.574;2023-09-19T09:01:49;17.70;99.90
13598;DHT22;38563;54.258;12.574;2023-09-19T09:04:19;17.60;99.90
13598;DHT22;38563;54.258;12.574;2023-09-19T09:06:47;17.60;99.90
13598;DHT22;38563;54.258;12.574;2023-09-19T09:09:18;17.60;99.90
13598;DHT22;38563;54.258;12.574;2023-09-19T09:11:48;17.60;99.90
13598;DHT22;38563;54.258;12.574;2023-09-19T09:14:15;17.60;99.90
13598;DHT22;38563;54.258;12.574;2023-09-19T09:16:43;17.50;99.90
13598;DHT22;38563;54.258;12.574;2023-09-19T09:19:10;17.50;99.90
13598;DHT22;38563;54.258;12.574;2023-09-19T09:21:39;17.50;99.90
13598;DHT22;38563;54.258;12.574;2023-09-19T09:24:28;17.60;99.90
13598;DHT22;38563;54.258;12.574;2023-09-19T09:26:55;17.60;99.90
13598;DHT22;38563;54.258;12.574;2023-09-19T09:29:41;17.60;99.90
13598;DHT22;38563;54.258;12.574;2023-09-19T09:32:18;17.70;99.90
13598;DHT22;38563;54.258;12.574;2023-09-19T09:34:45;17.90;99.90
13598;DHT22;38563;54.258;12.574;2023-09-19T09:37:14;18.00;99.90
13598;DHT22;38563;54.258;12.574;2023-09-19T09:39:51;18.10;99.90
13598;DHT22;38563;54.258;12.574;2023-09-19T09:42:32;18.20;99.90
13598;DHT22;38563;54.258;12.574;2023-09-19T09:45:14;18.30;99.90
13598;DHT22;38563;54.258;12.574;2023-09-19T09:47:42;18.30;99.90
13598;DHT22;38563;54.258;12.574;2023-09-19T09:50:26;18.30;99.90
13598;DHT22;38563;54.258;12.574;2023-09-19T09:53:19;18.50;99.90
13598;DHT22;38563;54.258;12.574;2023-09-19T09:56:03;18.50;99.90
13598;DHT22;38563;54.258;12.574;2023-09-19T09:58:32;18.40;99.90
13598;DHT22;38563;54.258;12.574;2023-09-19T10:00:59;18.40;99.90
13598;DHT22;38563;54.258;12.574;2023-09-19T10:03:36;18.40;99.90
13598;DHT22;38563;54.258;12.574;2023-09-19T10:06:06;18.30;99.90
13598;DHT22;38563;54.258;12.574;2023-09-19T10:09:00;18.20;99.90
13598;DHT22;38563;54.258;12.574;2023-09-19T10:11:41;18.30;99.90
13598;DHT22;38563;54.258;12.574;2023-09-19T10:14:10;18.50;99.90
13598;DHT22;38563;54.258;12.574;2023-09-19T10:16:40;18.70;99.90
13598;DHT22;38563;54.258;12.574;2023-09-19T10:19:07;18.80;99.90
13598;DHT22;38563;54.258;12.574;2023-09-19T10:21:36;18.80;99.90
13598;DHT22;38563;54.258;12.574;2023-09-19T10:24:03;18.60;99.90
13598;DHT22;38563;54.258;12.574;2023-09-19T10:26:34;18.60;99.90
13598;DHT22;38563;54.258;12.574;2023-09-19T10:29:06;18.50;99.90
13598;DHT22;38563;54.258;12.574;2023-09-19T10:31:36;18.30;99.90
13598;DHT22;38563;54.258;12.574;2023-09-19T10:34:06;18.40;99.90
13598;DHT22;38563;54.258;12.574;2023-09-19T10:36:36;18.40;99.90
13598;DHT22;38563;54.258;12.574;2023-09-19T10:39:05;18.30;99.90
13598;DHT22;38563;54.258;12.574;2023-09-19T13:12:37;19.20;99.90
13598;DHT22;38563;54.258;12.574;2023-09-19T13:15:08;19.30;99.90
13598;DHT22;38563;54.258;12.574;2023-09-19T13:17:45;19.30;99.90
13598;DHT22;38563;54.258;12.574;2023-09-19T13:20:24;19.30;99.90
13598;DHT22;38563;54.258;12.574;2023-09-19T13:22:54;19.40;99.90
13598;DHT22;38563;54.258;12.574;2023-09-19T13:25:25;19.50;99.90
13598;DHT22;38563;54.258;12.574;2023-09-19T13:27:57;19.50;99.90
13598;DHT22;38563;54.258;12.574;2023-09-19T13:30:26;19.40;99.90
13598;DHT22;38563;54.258;12.574;2023-09-19T13:33:05;19.40;99.90
13598;DHT22;38563;54.258;12.574;2023-09-19T13:35:32;19.40;99.90
13598;DHT22;38563;54.258;12.574;2023-09-19T13:37:59;19.40;99.90
13598;DHT22;38563;54.258;12.574;2023-09-19T13:40:26;19.40;99.90
13598;DHT22;38563;54.258;12.574;2023-09-19T13:42:57;19.50;99.90
13598;DHT22;38563;54.258;12.574;2023-09-19T13:45:24;19.50;99.90
13598;DHT22;38563;54.258;12.574;2023-09-19T13:47:52;19.30;99.90
13598;DHT22;38563;54.258;12.574;2023-09-19T13:50:20;19.20;99.90
13598;DHT22;38563;54.258;12.574;2023-09-19T13:52:49;19.30;99.90
13598;DHT22;38563;54.258;12.574;2023-09-19T13:55:16;19.30;99.90
13598;DHT22;38563;54.258;12.574;2023-09-19T13:57:45;19.30;99.90
13598;DHT22;38563;54.258;12.574;2023-09-19T14:00:14;19.40;99.90
13598;DHT22;38563;54.258;12.574;2023-09-19T14:02:41;19.40;99.90
13598;DHT22;38563;54.258;12.574;2023-09-19T14:05:10;19.40;99.90
13598;DHT22;38563;54.258;12.574;2023-09-19T14:07:38;19.50;99.90
13598;DHT22;38563;54.258;12.574;2023-09-19T14:10:07;19.50;99.90
13598;DHT22;38563;54.258;12.574;2023-09-19T14:12:34;19.50;99.90
13598;DHT22;38563;54.258;12.574;2023-09-19T14:15:01;19.50;99.90
13598;DHT22;38563;54.258;12.574;2023-09-19T14:17:29;19.50;99.90
13598;DHT22;38563;54.258;12.574;2023-09-19T14:19:56;19.50;99.90
13598;DHT22;38563;54.258;12.574;2023-09-19T14:22:22;19.40;99.90
13598;DHT22;38563;54.258;12.574;2023-09-19T14:24:49;19.40;99.90
13598;DHT22;38563;54.258;12.574;2023-09-19T14:27:16;19.40;99.90
13598;DHT22;38563;54.258;12.574;2023-09-19T14:29:42;19.30;99.90
13598;DHT22;38563;54.258;12.574;2023-09-19T14:32:09;19.30;99.90
13598;DHT22;38563;54.258;12.574;2023-09-19T14:34:37;19.30;99.90
13598;DHT22;38563;54.258;12.574;2023-09-19T14:37:07;19.40;99.90
13598;DHT22;38563;54.258;12.574;2023-09-19T14:39:34;19.40;99.90
13598;DHT22;38563;54.258;12.574;2023-09-19T14:42:01;19.40;99.90
13598;DHT22;38563;54.258;12.574;2023-09-19T14:44:28;19.30;99.90
13598;DHT22;38563;54.258;12.574;2023-09-19T14:46:55;19.30;99.90
13598;DHT22;38563;54.258;12.574;2023-09-19T14:49:21;19.20;99.90
13598;DHT22;38563;54.258;12.574;2023-09-19T14:51:49;19.20;99.90
13598;DHT22;38563;54.258;12.574;2023-09-19T14:54:17;19.20;99.90
13598;DHT22;38563;54.258;12.574;2023-09-19T15:17:10;19.10;99.90
13598;DHT22;38563;54.258;12.574;2023-09-19T15:19:37;19.40;99.90
13598;DHT22;38563;54.258;12.574;2023-09-19T15:22:04;19.30;99.90
13598;DHT22;38563;54.258;12.574;2023-09-19T15:24:32;19.30;99.90
13598;DHT22;38563;54.258;12.574;2023-09-19T15:26:59;19.20;99.90
13598;DHT22;38563;54.258;12.574;2023-09-19T15:29:26;19.20;99.90
13598;DHT22;38563;54.258;12.574;2023-09-19T15:31:55;19.10;99.90
13598;DHT22;38563;54.258;12.574;2023-09-19T15:34:24;19.00;99.90
13598;DHT22;38563;54.258;12.574;2023-09-19T15:36:50;19.00;99.90
13598;DHT22;38563;54.258;12.574;2023-09-19T15:39:17;18.90;99.90
13598;DHT22;38563;54.258;12.574;2023-09-19T15:41:48;18.90;99.90
13598;DHT22;38563;54.258;12.574;2023-09-19T15:44:17;18.80;99.90
13598;DHT22;38563;54.258;12.574;2023-09-19T15:46:44;18.70;99.90
13598;DHT22;38563;54.258;12.574;2023-09-19T15:49:11;18.70;99.90
13598;DHT22;38563;54.258;12.574;2023-09-19T15:51:40;18.60;99.90
13598;DHT22;38563;54.258;12.574;2023-09-19T15:54:10;18.50;99.90
13598;DHT22;38563;54.258;12.574;2023-09-19T15:56:38;18.40;99.90
13598;DHT22;38563;54.258;12.574;2023-09-19T15:59:07;18.40;99.90
13598;DHT22;38563;54.258;12.574;2023-09-19T16:01:34;18.30;99.90
13598;DHT22;38563;54.258;12.574;2023-09-19T16:04:00;18.30;99.90
13598;DHT22;38563;54.258;12.574;2023-09-19T16:06:29;18.30;99.90
13598;DHT22;38563;54.258;12.574;2023-09-19T16:08:58;18.30;99.90
13598;DHT22;38563;54.258;12.574;2023-09-19T16:11:29;18.20;99.90
13598;DHT22;38563;54.258;12.574;2023-09-19T16:13:56;18.20;99.90
13598;DHT22;38563;54.258;12.574;2023-09-19T16:16:25;18.20;99.90
13598;DHT22;38563;54.258;12.574;2023-09-19T16:18:57;18.10;99.90
13598;DHT22;38563;54.258;12.574;2023-09-19T16:21:26;18.10;99.90
13598;DHT22;38563;54.258;12.574;2023-09-19T16:23:54;18.00;99.90
13598;DHT22;38563;54.258;12.574;2023-09-19T16:26:23;18.00;99.90
13598;DHT22;38563;54.258;12.574;2023-09-19T16:28:52;18.00;99.90
13598;DHT22;38563;54.258;12.574;2023-09-19T16:31:19;18.10;99.90
13598;DHT22;38563;54.258;12.574;2023-09-19T16:33:47;18.10;99.90
13598;DHT22;38563;54.258;12.574;2023-09-19T16:36:15;18.10;99.90
13598;DHT22;38563;54.258;12.574;2023-09-19T16:38:42;18.20;99.90
13598;DHT22;38563;54.258;12.574;2023-09-19T16:41:10;18.20;99.90
13598;DHT22;38563;54.258;12.574;2023-09-19T16:43:40;18.10;99.90
13598;DHT22;38563;54.258;12.574;2023-09-19T16:46:08;18.10;99.90
13598;DHT22;38563;54.258;12.574;2023-09-19T16:48:38;18.00;99.90
13598;DHT22;38563;54.258;12.574;2023-09-19T16:51:07;18.00;99.90
13598;DHT22;38563;54.258;12.574;2023-09-19T16:53:35;17.90;99.90
13598;DHT22;38563;54.258;12.574;2023-09-19T16:56:03;17.90;99.90
13598;DHT22;38563;54.258;12.574;2023-09-19T16:58:31;17.80;99.90
13598;DHT22;38563;54.258;12.574;2023-09-19T17:00:59;17.80;99.90
13598;DHT22;38563;54.258;12.574;2023-09-19T17:03:26;17.80;99.90
13598;DHT22;38563;54.258;12.574;2023-09-19T17:05:56;17.80;99.90
13598;DHT22;38563;54.258;12.574;2023-09-19T17:08:24;17.80;99.90
13598;DHT22;38563;54.258;12.574;2023-09-19T17:10:51;17.80;99.90
13598;DHT22;38563;54.258;12.574;2023-09-19T17:13:25;17.70;99.90
13598;DHT22;38563;54.258;12.574;2023-09-19T17:16:00;17.80;99.90
13598;DHT22;38563;54.258;12.574;2023-09-19T17:18:28;17.70;99.90
13598;DHT22;38563;54.258;12.574;2023-09-19T17:20:57;17.70;99.90
13598;DHT22;38563;54.258;12.574;2023-09-19T17:23:25;17.70;99.90
13598;DHT22;38563;54.258;12.574;2023-09-19T17:26:01;17.70;99.90
13598;DHT22;38563;54.258;12.574;2023-09-19T17:28:29;17.70;99.90
13598;DHT22;38563;54.258;12.574;2023-09-19T17:30:56;17.70;99.90
13598;DHT22;38563;54.258;12.574;2023-09-19T17:33:25;17.70;99.90
13598;DHT22;38563;54.258;12.574;2023-09-19T17:35:52;17.80;99.90
13598;DHT22;38563;54.258;12.574;2023-09-19T17:38:20;17.70;99.90
13598;DHT22;38563;54.258;12.574;2023-09-19T17:40:46;17.80;99.90
13598;DHT22;38563;54.258;12.574;2023-09-19T17:43:15;17.80;99.90
13598;DHT22;38563;54.258;12.574;2023-09-19T17:45:42;17.80;99.90
13598;DHT22;38563;54.258;12.574;2023-09-19T17:48:08;17.70;99.90
13598;DHT22;38563;54.258;12.574;2023-09-19T17:50:36;17.70;99.90
13598;DHT22;38563;54.258;12.574;2023-09-19T17:53:04;17.70;99.90
13598;DHT22;38563;54.258;12.574;2023-09-19T17:55:31;17.70;99.90
13598;DHT22;38563;54.258;12.574;2023-09-19T17:58:02;17.70;99.90
13598;DHT22;38563;54.258;12.574;2023-09-19T18:00:31;17.70;99.90
13598;DHT22;38563;54.258;12.574;2023-09-19T18:03:01;17.70;99.90
13598;DHT22;38563;54.258;12.574;2023-09-19T18:05:29;17.70;99.90
13598;DHT22;38563;54.258;12.574;2023-09-19T18:07:57;17.80;99.90
13598;DHT22;38563;54.258;12.574;2023-09-19T18:10:23;17.80;99.90
13598;DHT22;38563;54.258;12.574;2023-09-19T18:12:51;17.70;99.90
13598;DHT22;38563;54.258;12.574;2023-09-19T18:15:18;17.70;99.90
13598;DHT22;38563;54.258;12.574;2023-09-19T18:17:45;17.70;99.90
13598;DHT22;38563;54.258;12.574;2023-09-19T18:20:12;17.70;99.90
13598;DHT22;38563;54.258;12.574;2023-09-19T18:22:40;17.70;99.90
13598;DHT22;38563;54.258;12.574;2023-09-19T18:25:08;17.70;99.90
13598;DHT22;38563;54.258;12.574;2023-09-19T18:27:38;17.70;99.90
13598;DHT22;38563;54.258;12.574;2023-09-19T18:30:07;17.70;99.90
13598;DHT22;38563;54.258;12.574;2023-09-19T18:32:34;17.70;99.90
13598;DHT22;38563;54.258;12.574;2023-09-19T18:35:04;17.60;99.90
13598;DHT22;38563;54.258;12.574;2023-09-19T18:37:33;17.60;99.90
13598;DHT22;38563;54.258;12.574;2023-09-19T18:40:00;17.60;99.90
13598;DHT22;38563;54.258;12.574;2023-09-19T18:42:28;17.60;99.90
13598;DHT22;38563;54.258;12.574;2023-09-19T18:44:55;17.50;99.90
13598;DHT22;38563;54.258;12.574;2023-09-19T18:47:22;17.50;99.90
13598;DHT22;38563;54.258;12.574;2023-09-19T18:49:53;17.50;99.90
13598;DHT22;38563;54.258;12.574;2023-09-19T18:52:20;17.40;99.90
13598;DHT22;38563;54.258;12.574;2023-09-19T18:54:47;17.50;99.90
13598;DHT22;38563;54.258;12.574;2023-09-19T18:57:15;17.50;99.90
13598;DHT22;38563;54.258;12.574;2023-09-19T18:59:44;17.50;99.90
13598;DHT22;38563;54.258;12.574;2023-09-19T19:02:10;17.40;99.90
13598;DHT22;38563;54.258;12.574;2023-09-19T19:04:37;17.40;99.90
13598;DHT22;38563;54.258;12.574;2023-09-19T19:07:05;17.40;99.90
13598;DHT22;38563;54.258;12.574;2023-09-19T19:09:32;17.30;99.90
13598;DHT22;38563;54.258;12.574;2023-09-19T19:11:59;17.30;99.90
13598;DHT22;38563;54.258;12.574;2023-09-19T19:14:26;17.40;99.90
13598;DHT22;38563;54.258;12.574;2023-09-19T19:16:54;17.40;99.90
13598;DHT22;38563;54.258;12.574;2023-09-19T19:19:23;17.40;99.90
13598;DHT22;38563;54.258;12.574;2023-09-19T19:21:50;17.40;99.90
13598;DHT22;38563;54.258;12.574;2023-09-19T19:24:17;17.30;99.90
13598;DHT22;38563;54.258;12.574;2023-09-19T19:26:45;17.30;99.90
13598;DHT22;38563;54.258;12.574;2023-09-19T19:29:12;17.30;99.90
13598;DHT22;38563;54.258;12.574;2023-09-19T19:31:39;17.30;99.90
13598;DHT22;38563;54.258;12.574;2023-09-19T19:34:09;17.20;99.90
13598;DHT22;38563;54.258;12.574;2023-09-19T19:36:35;17.20;99.90
13598;DHT22;38563;54.258;12.574;2023-09-19T19:39:02;17.20;99.90
13598;DHT22;38563;54.258;12.574;2023-09-19T19:41:30;17.20;99.90
13598;DHT22;38563;54.258;12.574;2023-09-19T19:43:59;17.20;99.90
13598;DHT22;38563;54.258;12.574;2023-09-19T19:46:26;17.30;99.90
13598;DHT22;38563;54.258;12.574;2023-09-19T19:48:53;17.30;99.90
13598;DHT22;38563;54.258;12.574;2023-09-19T19:51:21;17.40;99.90
13598;DHT22;38563;54.258;12.574;2023-09-19T19:53:47;17.40;99.90
13598;DHT22;38563;54.258;12.574;2023-09-19T19:56:14;17.40;99.90
13598;DHT22;38563;54.258;12.574;2023-09-19T19:58:41;17.50;99.90
13598;DHT22;38563;54.258;12.574;2023-09-19T20:01:09;17.50;99.90
13598;DHT22;38563;54.258;12.574;2023-09-19T20:03:36;17.50;99.90
13598;DHT22;38563;54.258;12.574;2023-09-19T20:06:03;17.60;99.90
13598;DHT22;38563;54.258;12.574;2023-09-19T20:08:32;17.60;99.90
13598;DHT22;38563;54.258;12.574;2023-09-19T20:11:02;17.60;99.90
13598;DHT22;38563;54.258;12.574;2023-09-19T20:13:29;17.60;99.90
13598;DHT22;38563;54.258;12.574;2023-09-19T20:15:57;17.60;99.90
13598;DHT22;38563;54.258;12.574;2023-09-19T20:18:25;17.60;99.90
13598;DHT22;38563;54.258;12.574;2023-09-19T20:20:52;17.60;99.90
13598;DHT22;38563;54.258;12.574;2023-09-19T20:23:19;17.60;99.90
13598;DHT22;38563;54.258;12.574;2023-09-19T20:25:48;17.60;99.90
13598;DHT22;38563;54.258;12.574;2023-09-19T20:28:16;17.70;99.90
13598;DHT22;38563;54.258;12.574;2023-09-19T20:30:43;17.80;99.90
13598;DHT22;38563;54.258;12.574;2023-09-19T20:33:11;17.80;99.90